Terminal Aerodrome Forecast
Issued by NWS Sterling, VA

Home | Current Version | Previous Version | Text Only | Print | Product List | Glossary On
Versions: 1 2 3 4 5 6 7 8 9 10 11 12 13 14 15 16 17 18 19 20 21 22 23
756
FTUS41 KLWX 222320
TAFBWI
TAF
KBWI 222320Z 2300/2406 18004KT P6SM BKN130
     FM230600 20004KT 4SM BR BKN015
     FM231100 VRB03KT 2SM BR BKN015
     FM231300 21004KT 4SM BR BKN015
     FM231400 21004KT P6SM BKN060
     FM231700 21006KT P6SM SCT050
     FM232300 19007KT P6SM BKN050
     FM240500 19004KT P6SM SCT050=

USA.gov is the U.S. government's official web portal to all federal, state and local government web resources and services.